Time;durP1;ratioP1;P1;durP2;ratioP2;P2;SDS_P1;SDS_P2;PMS_P1;PMS_P2;Temp;Humidity;BMP_temperature;BMP_pressure;BME280_temperature;BME280_humidity;BME280_pressure;Samples;Min_cycle;Max_cycle;Signal;HPM_P1;HPM_P2
2021/08/05 00:00:45;;;;;;;10.18;9.27;;;21.20;64.60;;;;;;1492575;39;20522;-60
2021/08/05 00:02:06;;;;;;;10.90;9.73;;;21.30;64.60;;;;;;1490877;39;20028;-59
2021/08/05 00:03:27;;;;;;;10.05;9.15;;;21.30;64.60;;;;;;1491135;39;20021;-59
2021/08/05 00:04:48;;;;;;;10.88;9.88;;;21.20;64.60;;;;;;1490507;39;20088;-59
2021/08/05 00:06:08;;;;;;;11.15;10.15;;;21.20;64.70;;;;;;1490798;39;20032;-60
2021/08/05 00:07:29;;;;;;;10.40;9.50;;;21.20;64.80;;;;;;1491835;39;20055;-59
2021/08/05 00:08:50;;;;;;;9.40;8.32;;;21.20;64.70;;;;;;1490657;39;20036;-60
2021/08/05 00:10:11;;;;;;;10.27;9.30;;;21.20;64.80;;;;;;1489499;39;20051;-60
2021/08/05 00:11:32;;;;;;;10.57;9.68;;;21.20;64.90;;;;;;1484702;40;20032;-59
2021/08/05 00:12:53;;;;;;;9.40;8.60;;;21.20;64.90;;;;;;1485579;39;20039;-59
2021/08/05 00:14:14;;;;;;;10.68;9.70;;;21.20;64.90;;;;;;1484365;40;20068;-59
2021/08/05 00:15:35;;;;;;;10.88;9.77;;;21.20;64.80;;;;;;1485471;39;20034;-59
2021/08/05 00:16:56;;;;;;;11.38;10.35;;;21.20;64.70;;;;;;1487137;39;20036;-59
2021/08/05 00:18:17;;;;;;;11.32;10.32;;;21.20;64.50;;;;;;1485284;40;20041;-60
2021/08/05 00:19:39;;;;;;;11.52;10.32;;;21.20;64.50;;;;;;1486620;40;20349;-60
2021/08/05 00:20:59;;;;;;;11.13;9.95;;;21.20;64.60;;;;;;1485374;40;20032;-60
2021/08/05 00:22:20;;;;;;;10.90;9.80;;;21.20;64.70;;;;;;1487806;39;20025;-59
2021/08/05 00:23:41;;;;;;;10.27;9.38;;;21.20;64.80;;;;;;1485011;40;20025;-59
2021/08/05 00:25:03;;;;;;;9.73;8.82;;;21.20;64.90;;;;;;1487014;40;20032;-59
2021/08/05 00:26:24;;;;;;;9.43;8.55;;;21.20;64.90;;;;;;1484925;40;20065;-59
2021/08/05 00:27:45;;;;;;;10.05;9.15;;;21.20;65.00;;;;;;1485950;40;20037;-59
2021/08/05 00:29:06;;;;;;;9.45;8.65;;;21.20;65.00;;;;;;1486293;40;20036;-59
2021/08/05 00:30:27;;;;;;;9.75;8.85;;;21.20;65.10;;;;;;1489116;39;20048;-59
2021/08/05 00:31:47;;;;;;;11.13;9.93;;;21.20;65.20;;;;;;1485302;40;20025;-59
2021/08/05 00:33:08;;;;;;;9.85;9.00;;;21.20;65.30;;;;;;1486023;40;20136;-59
2021/08/05 00:34:29;;;;;;;11.05;9.88;;;21.20;65.40;;;;;;1484968;40;20057;-59
2021/08/05 00:35:50;;;;;;;10.75;9.82;;;21.20;65.50;;;;;;1486250;40;20036;-59
2021/08/05 00:37:11;;;;;;;11.32;10.35;;;21.20;65.40;;;;;;1486935;39;20266;-59
2021/08/05 00:38:32;;;;;;;10.88;9.80;;;21.20;66.10;;;;;;1486563;40;20028;-59
2021/08/05 00:39:53;;;;;;;9.73;8.93;;;21.20;65.50;;;;;;1485242;40;20037;-59
2021/08/05 00:41:15;;;;;;;10.45;9.55;;;21.20;65.50;;;;;;1485760;40;20039;-59
2021/08/05 00:42:36;;;;;;;10.05;9.15;;;21.20;65.50;;;;;;1484788;40;20419;-59
2021/08/05 00:43:58;;;;;;;11.48;10.48;;;21.20;65.20;;;;;;1487401;40;20037;-59
2021/08/05 00:45:19;;;;;;;12.77;11.68;;;21.10;65.10;;;;;;1487182;40;20028;-59
2021/08/05 00:46:40;;;;;;;12.75;11.60;;;21.10;65.00;;;;;;1486319;40;20507;-59
2021/08/05 00:48:01;;;;;;;13.35;12.13;;;21.10;65.00;;;;;;1487066;40;20068;-59
2021/08/05 00:49:22;;;;;;;12.63;11.50;;;21.10;65.00;;;;;;1487300;40;20301;-59
2021/08/05 00:50:43;;;;;;;13.23;12.02;;;21.10;65.00;;;;;;1485796;39;20024;-59
2021/08/05 00:52:05;;;;;;;11.27;10.27;;;21.10;64.90;;;;;;1485969;40;20028;-59
2021/08/05 00:53:27;;;;;;;11.60;10.60;;;21.10;64.90;;;;;;1487029;40;20660;-59
2021/08/05 00:54:49;;;;;;;11.75;10.75;;;21.10;65.00;;;;;;1486165;40;20039;-59
2021/08/05 00:56:11;;;;;;;11.35;10.25;;;21.10;65.10;;;;;;1485675;40;20252;-59
2021/08/05 00:57:32;;;;;;;12.25;11.15;;;21.10;65.10;;;;;;1488255;39;20024;-59
2021/08/05 00:58:53;;;;;;;11.43;10.35;;;21.10;65.00;;;;;;1487407;40;20350;-59
2021/08/05 01:00:14;;;;;;;12.15;11.05;;;21.00;64.90;;;;;;1487207;40;20028;-59
2021/08/05 01:01:41;;;;;;;11.05;9.95;;;21.00;65.60;;;;;;1486464;40;20395;-59
2021/08/05 01:03:13;;;;;;;12.48;11.27;;;21.00;65.10;;;;;;1486739;40;20269;-59
2021/08/05 01:04:34;;;;;;;12.40;11.23;;;21.00;65.40;;;;;;1487084;40;20359;-59
2021/08/05 01:06:23;;;;;;;12.23;11.00;;;21.00;65.00;;;;;;1484922;40;20037;-59
2021/08/05 01:07:49;;;;;;;11.65;10.65;;;21.00;65.40;;;;;;1487460;39;20032;-59
2021/08/05 01:09:29;;;;;;;12.10;11.00;;;21.00;64.80;;;;;;1486437;40;20040;-59
2021/08/05 01:10:54;;;;;;;10.98;9.98;;;20.90;65.30;;;;;;1491119;39;20056;-59
2021/08/05 01:12:36;;;;;;;12.50;11.02;;;20.90;65.00;;;;;;1490865;39;20035;-59
2021/08/05 01:14:02;;;;;;;11.63;10.52;;;20.90;65.40;;;;;;1491055;39;20035;-59
2021/08/05 01:15:27;;;;;;;10.93;9.63;;;20.90;65.20;;;;;;1492094;39;20129;-59
2021/08/05 01:16:50;;;;;;;11.15;10.10;;;20.90;65.30;;;;;;1490691;39;20023;-59
2021/08/05 01:18:26;;;;;;;14.25;12.43;;;20.80;65.30;;;;;;1490373;39;20140;-59
2021/08/05 01:19:58;;;;;;;12.65;11.43;;;20.80;66.00;;;;;;1489652;39;20523;-59
2021/08/05 01:21:56;;;;;;;11.75;10.65;;;20.80;65.90;;;;;;1490958;39;20064;-59
2021/08/05 01:23:33;;;;;;;10.32;9.43;;;20.80;65.90;;;;;;1492372;39;20023;-59
2021/08/05 01:25:04;;;;;;;11.38;10.27;;;20.80;66.10;;;;;;1489392;39;20056;-59
2021/08/05 01:26:48;;;;;;;12.07;10.93;;;20.80;65.90;;;;;;1489288;39;20047;-59
2021/08/05 01:28:11;;;;;;;11.40;10.40;;;20.80;66.20;;;;;;1491529;39;20044;-59
2021/08/05 01:29:35;;;;;;;10.27;9.38;;;20.80;65.60;;;;;;1489845;39;20028;-59
2021/08/05 01:31:00;;;;;;;11.02;10.05;;;20.80;65.90;;;;;;1491338;39;20577;-59
2021/08/05 01:32:21;;;;;;;10.50;9.60;;;20.70;65.90;;;;;;1490974;39;20043;-59
2021/08/05 01:33:46;;;;;;;11.15;10.02;;;20.70;65.90;;;;;;1490271;39;20023;-59
2021/08/05 01:35:09;;;;;;;12.43;11.23;;;20.70;66.00;;;;;;1491314;39;20052;-59
2021/08/05 01:36:31;;;;;;;12.70;11.50;;;20.70;66.20;;;;;;1482622;40;20380;-59
2021/08/05 01:37:53;;;;;;;13.10;11.73;;;20.70;66.20;;;;;;1486033;39;20040;-59
2021/08/05 01:39:14;;;;;;;11.75;10.63;;;20.70;66.20;;;;;;1484963;39;20048;-59
2021/08/05 01:40:35;;;;;;;11.88;10.82;;;20.70;66.20;;;;;;1490935;39;20591;-59
2021/08/05 01:41:56;;;;;;;10.32;9.43;;;20.60;66.20;;;;;;1489838;39;20027;-59
2021/08/05 01:43:19;;;;;;;10.82;9.82;;;20.60;66.20;;;;;;1489896;39;20027;-59
2021/08/05 01:44:43;;;;;;;10.65;9.60;;;20.60;66.30;;;;;;1487587;39;20024;-59
2021/08/05 01:46:05;;;;;;;10.73;9.45;;;20.60;66.40;;;;;;1491115;39;20032;-59
2021/08/05 01:47:27;;;;;;;10.52;9.55;;;20.60;66.40;;;;;;1490896;39;20028;-59
2021/08/05 01:48:50;;;;;;;10.80;9.82;;;20.60;66.40;;;;;;1490066;39;20020;-59
2021/08/05 01:50:13;;;;;;;11.45;10.35;;;20.60;66.60;;;;;;1489477;39;20035;-59
2021/08/05 01:51:35;;;;;;;11.38;10.23;;;20.60;66.60;;;;;;1491201;39;20016;-59
2021/08/05 01:52:56;;;;;;;12.13;10.85;;;20.60;66.60;;;;;;1489820;39;20036;-59
2021/08/05 01:54:17;;;;;;;12.88;11.63;;;20.60;66.60;;;;;;1487947;39;20464;-59
2021/08/05 01:55:38;;;;;;;11.60;10.50;;;20.50;66.60;;;;;;1489787;39;20162;-59
2021/08/05 01:56:59;;;;;;;11.18;10.13;;;20.50;66.60;;;;;;1488361;39;20906;-59
2021/08/05 01:58:20;;;;;;;10.82;9.85;;;20.50;66.60;;;;;;1484101;40;20056;-59
2021/08/05 01:59:41;;;;;;;11.85;10.75;;;20.50;66.60;;;;;;1489281;39;20032;-59
2021/08/05 02:01:02;;;;;;;13.02;11.82;;;20.50;66.60;;;;;;1489757;39;20248;-59
2021/08/05 02:02:23;;;;;;;11.32;10.32;;;20.50;66.70;;;;;;1491710;39;20268;-59
2021/08/05 02:03:53;;;;;;;11.60;10.43;;;20.50;66.80;;;;;;1488214;39;20083;-59
2021/08/05 02:05:25;;;;;;;11.43;10.32;;;20.50;67.00;;;;;;1490107;39;20072;-59
2021/08/05 02:07:01;;;;;;;11.77;10.65;;;20.50;67.00;;;;;;1490227;39;20064;-59
2021/08/05 02:08:28;;;;;;;10.27;9.40;;;20.50;66.90;;;;;;1489809;39;20032;-59
2021/08/05 02:09:56;;;;;;;12.05;10.18;;;20.50;66.80;;;;;;1488853;39;20024;-59
2021/08/05 02:11:20;;;;;;;10.07;9.18;;;20.40;66.80;;;;;;1490610;39;20124;-59
2021/08/05 02:12:46;;;;;;;10.57;9.57;;;20.40;66.70;;;;;;1488629;39;20020;-59
2021/08/05 02:14:08;;;;;;;10.48;9.55;;;20.50;66.90;;;;;;1490867;39;20028;-59
2021/08/05 02:15:31;;;;;;;11.10;10.10;;;20.40;66.70;;;;;;1490330;39;20055;-59
2021/08/05 02:16:53;;;;;;;11.65;10.55;;;20.40;66.90;;;;;;1490529;39;20043;-59
2021/08/05 02:18:15;;;;;;;11.15;10.10;;;20.40;66.70;;;;;;1491750;39;20050;-59
2021/08/05 02:19:36;;;;;;;11.73;10.65;;;20.40;66.50;;;;;;1489753;39;20035;-59
2021/08/05 02:20:59;;;;;;;11.13;10.02;;;20.30;66.40;;;;;;1490162;39;20596;-59
2021/08/05 02:22:20;;;;;;;12.32;10.73;;;20.40;66.60;;;;;;1487385;40;20031;-59
2021/08/05 02:23:42;;;;;;;12.88;11.68;;;20.30;66.70;;;;;;1487709;39;20060;-59
2021/08/05 02:25:03;;;;;;;12.30;11.18;;;20.30;66.80;;;;;;1489720;39;20052;-59
2021/08/05 02:26:25;;;;;;;11.43;10.32;;;20.30;66.80;;;;;;1487454;39;20028;-59
2021/08/05 02:27:47;;;;;;;11.02;10.02;;;20.30;66.90;;;;;;1491184;39;20433;-59
2021/08/05 02:29:09;;;;;;;11.20;10.18;;;20.30;67.00;;;;;;1491045;39;20048;-59
2021/08/05 02:30:31;;;;;;;11.55;10.48;;;20.30;67.10;;;;;;1490278;39;20031;-59
2021/08/05 02:31:52;;;;;;;12.85;11.70;;;20.30;67.10;;;;;;1489298;39;20350;-59
2021/08/05 02:33:14;;;;;;;11.80;10.70;;;20.30;67.10;;;;;;1492626;39;20024;-59
2021/08/05 02:34:36;;;;;;;12.60;11.50;;;20.30;67.20;;;;;;1489068;39;20117;-59
2021/08/05 02:35:58;;;;;;;12.15;10.93;;;20.20;67.10;;;;;;1490108;39;20125;-59
2021/08/05 02:37:19;;;;;;;11.05;9.93;;;20.30;67.20;;;;;;1492392;39;20363;-59
2021/08/05 02:38:40;;;;;;;10.60;9.65;;;20.20;67.20;;;;;;1490193;39;20023;-59
2021/08/05 02:40:03;;;;;;;10.75;9.68;;;20.20;67.10;;;;;;1491537;39;20031;-59
2021/08/05 02:41:25;;;;;;;10.85;9.73;;;20.20;67.20;;;;;;1491099;39;20024;-59
2021/08/05 02:42:47;;;;;;;10.55;9.55;;;20.20;67.30;;;;;;1491306;39;20101;-59
2021/08/05 02:44:08;;;;;;;10.20;9.20;;;20.20;67.30;;;;;;1490429;39;20034;-59
2021/08/05 02:45:30;;;;;;;10.38;9.40;;;20.20;67.40;;;;;;1491068;39;20064;-59
2021/08/05 02:46:51;;;;;;;11.15;10.05;;;20.20;67.40;;;;;;1490919;39;20036;-59
2021/08/05 02:48:12;;;;;;;10.57;9.60;;;20.20;67.40;;;;;;1490945;39;20036;-59
2021/08/05 02:49:34;;;;;;;10.35;9.38;;;20.20;67.50;;;;;;1491111;39;20031;-59
2021/08/05 02:50:56;;;;;;;10.60;9.60;;;20.20;67.60;;;;;;1489825;39;20038;-59
2021/08/05 02:52:17;;;;;;;11.27;10.18;;;20.20;67.60;;;;;;1491892;39;20046;-59
2021/08/05 02:53:38;;;;;;;11.40;10.35;;;20.20;67.60;;;;;;1490806;39;20021;-59
2021/08/05 02:55:04;;;;;;;11.65;10.55;;;20.20;67.60;;;;;;1489469;39;20054;-59
2021/08/05 02:56:25;;;;;;;12.02;10.93;;;20.20;67.50;;;;;;1491218;39;20238;-59
2021/08/05 02:57:46;;;;;;;11.07;10.07;;;20.20;67.50;;;;;;1490707;39;20020;-59
2021/08/05 02:59:07;;;;;;;11.85;10.80;;;20.20;67.50;;;;;;1491716;39;20544;-59
2021/08/05 03:00:28;;;;;;;12.93;11.55;;;20.20;67.60;;;;;;1488273;40;20017;-59
2021/08/05 03:01:49;;;;;;;13.35;11.95;;;20.20;68.30;;;;;;1491937;39;20368;-59
2021/08/05 03:03:11;;;;;;;11.55;10.38;;;20.20;67.50;;;;;;1491665;39;20039;-59
2021/08/05 03:04:33;;;;;;;12.63;11.50;;;20.20;67.50;;;;;;1490653;39;20016;-59
2021/08/05 03:05:56;;;;;;;11.50;10.50;;;20.20;67.50;;;;;;1489531;39;20060;-59
2021/08/05 03:07:17;;;;;;;11.80;10.70;;;20.20;67.40;;;;;;1487743;39;20024;-59
2021/08/05 03:08:42;;;;;;;11.93;10.82;;;20.20;67.30;;;;;;1491708;39;20024;-59
2021/08/05 03:10:05;;;;;;;11.40;10.30;;;20.20;68.10;;;;;;1491787;39;20039;-59
2021/08/05 03:11:26;;;;;;;10.52;9.63;;;20.20;67.30;;;;;;1491348;39;20435;-59
2021/08/05 03:12:47;;;;;;;11.20;10.13;;;20.20;67.30;;;;;;1488830;39;20288;-59
2021/08/05 03:14:08;;;;;;;12.80;11.55;;;20.20;67.20;;;;;;1490426;39;20032;-59
2021/08/05 03:15:29;;;;;;;14.55;13.13;;;20.20;67.30;;;;;;1491209;39;20035;-59
2021/08/05 03:16:50;;;;;;;14.57;13.18;;;20.20;67.20;;;;;;1492205;39;20059;-59
2021/08/05 03:18:11;;;;;;;13.63;12.35;;;20.20;67.10;;;;;;1491680;39;20306;-59
2021/08/05 03:19:32;;;;;;;13.93;12.65;;;20.20;67.00;;;;;;1490757;39;20032;-59
2021/08/05 03:20:53;;;;;;;12.63;11.43;;;20.20;67.00;;;;;;1491103;39;20033;-59
2021/08/05 03:22:14;;;;;;;12.05;11.00;;;20.20;67.00;;;;;;1490658;39;20407;-59
2021/08/05 03:23:35;;;;;;;12.65;11.45;;;20.20;67.00;;;;;;1489564;39;20328;-59
2021/08/05 03:24:56;;;;;;;11.90;10.90;;;20.20;67.00;;;;;;1489148;39;20020;-59
2021/08/05 03:26:17;;;;;;;13.05;11.90;;;20.20;67.00;;;;;;1491359;39;20028;-59
2021/08/05 03:27:39;;;;;;;15.05;13.55;;;20.20;67.00;;;;;;1491131;39;20076;-59
2021/08/05 03:28:59;;;;;;;12.63;11.43;;;20.20;67.10;;;;;;1490244;39;20046;-59
2021/08/05 03:30:20;;;;;;;13.85;12.45;;;20.20;67.00;;;;;;1492968;39;20039;-59
2021/08/05 03:31:41;;;;;;;13.45;12.27;;;20.20;67.00;;;;;;1487544;39;20028;-59
2021/08/05 03:33:02;;;;;;;14.10;12.70;;;20.20;66.90;;;;;;1491222;39;20035;-59
2021/08/05 03:34:23;;;;;;;13.80;12.50;;;20.20;66.80;;;;;;1490946;39;20054;-59
2021/08/05 03:35:44;;;;;;;13.65;12.35;;;20.20;66.80;;;;;;1486557;39;20024;-59
2021/08/05 03:37:05;;;;;;;13.82;12.43;;;20.20;66.80;;;;;;1489230;39;20383;-59
2021/08/05 03:38:26;;;;;;;15.32;13.82;;;20.20;66.80;;;;;;1487801;39;20421;-59
2021/08/05 03:39:47;;;;;;;14.75;13.35;;;20.10;66.70;;;;;;1490456;39;20040;-60
2021/08/05 03:41:08;;;;;;;14.70;13.30;;;20.20;66.70;;;;;;1487392;39;20130;-59
2021/08/05 03:42:28;;;;;;;14.10;12.80;;;20.10;66.70;;;;;;1489567;39;20288;-59
2021/08/05 03:43:49;;;;;;;14.70;13.30;;;20.20;66.90;;;;;;1490054;39;20035;-59
2021/08/05 03:45:11;;;;;;;13.52;12.32;;;20.20;67.00;;;;;;1490569;39;20360;-59
2021/08/05 03:46:31;;;;;;;14.25;12.85;;;20.20;67.00;;;;;;1486173;40;20037;-59
2021/08/05 03:47:52;;;;;;;14.02;12.68;;;20.10;67.10;;;;;;1489992;39;20038;-59
2021/08/05 03:49:13;;;;;;;12.85;11.65;;;20.20;67.20;;;;;;1492354;39;20020;-59
2021/08/05 03:50:34;;;;;;;13.93;12.60;;;20.20;67.40;;;;;;1486730;39;20073;-59
2021/08/05 03:51:55;;;;;;;14.32;12.95;;;20.20;67.50;;;;;;1489457;39;20133;-59
2021/08/05 03:53:16;;;;;;;16.73;15.07;;;20.20;67.40;;;;;;1490830;39;20035;-59
2021/08/05 03:54:37;;;;;;;17.33;15.52;;;20.20;67.20;;;;;;1490010;39;20094;-59
2021/08/05 03:55:58;;;;;;;17.83;16.13;;;20.20;67.10;;;;;;1490565;39;20040;-59
2021/08/05 03:57:19;;;;;;;15.88;14.27;;;20.20;67.10;;;;;;1492560;39;20112;-59
2021/08/05 03:58:43;;;;;;;18.15;16.38;;;20.20;67.10;;;;;;1488033;39;20591;-59
2021/08/05 04:00:04;;;;;;;20.55;18.40;;;20.20;67.00;;;;;;1491059;39;20067;-59
2021/08/05 04:01:25;;;;;;;17.67;15.88;;;20.20;66.90;;;;;;1490253;39;20030;-59
2021/08/05 04:02:46;;;;;;;18.35;16.38;;;20.20;66.80;;;;;;1490596;39;20133;-59
2021/08/05 04:04:07;;;;;;;18.58;16.88;;;20.20;66.80;;;;;;1490548;39;20039;-59
2021/08/05 04:05:29;;;;;;;18.42;16.58;;;20.10;66.70;;;;;;1490158;39;20035;-59
2021/08/05 04:06:50;;;;;;;18.35;16.63;;;20.10;66.70;;;;;;1489913;39;20261;-59
2021/08/05 04:08:10;;;;;;;18.13;16.33;;;20.20;66.80;;;;;;1490803;39;20042;-59
2021/08/05 04:09:31;;;;;;;17.15;15.45;;;20.10;66.70;;;;;;1490185;39;20316;-59
2021/08/05 04:10:52;;;;;;;16.58;14.95;;;20.10;66.80;;;;;;1491238;39;20343;-59
2021/08/05 04:12:13;;;;;;;16.67;14.93;;;20.10;66.90;;;;;;1491083;39;20105;-60
2021/08/05 04:13:34;;;;;;;17.50;15.77;;;20.10;67.00;;;;;;1490082;39;20031;-59
2021/08/05 04:14:55;;;;;;;20.17;18.00;;;20.10;67.10;;;;;;1489336;39;20124;-59
2021/08/05 04:16:16;;;;;;;19.70;17.80;;;20.10;67.10;;;;;;1489985;39;20466;-59
2021/08/05 04:17:38;;;;;;;20.55;18.55;;;20.10;67.20;;;;;;1491002;39;20028;-59
2021/08/05 04:18:59;;;;;;;19.95;17.95;;;20.10;67.20;;;;;;1492695;39;20107;-59
2021/08/05 04:20:21;;;;;;;21.08;18.98;;;20.10;67.20;;;;;;1491978;39;20128;-59
2021/08/05 04:21:42;;;;;;;22.60;20.17;;;20.10;67.20;;;;;;1489643;39;20027;-59
2021/08/05 04:23:03;;;;;;;21.15;18.95;;;20.10;67.30;;;;;;1490136;39;20027;-59
2021/08/05 04:24:24;;;;;;;20.40;18.20;;;20.10;67.30;;;;;;1490390;39;20023;-59
2021/08/05 04:25:45;;;;;;;18.08;16.27;;;20.10;67.40;;;;;;1489216;39;20031;-59
2021/08/05 04:27:06;;;;;;;21.88;19.50;;;20.10;67.50;;;;;;1491110;39;20125;-59
2021/08/05 04:28:27;;;;;;;21.10;18.88;;;20.10;67.60;;;;;;1491823;39;20262;-59
2021/08/05 04:29:48;;;;;;;19.67;17.63;;;20.10;67.80;;;;;;1487701;39;20039;-59
2021/08/05 04:31:09;;;;;;;20.80;18.70;;;20.10;67.80;;;;;;1489468;39;20297;-59
2021/08/05 04:32:30;;;;;;;20.55;18.40;;;20.20;68.00;;;;;;1491625;39;20020;-59
2021/08/05 04:33:50;;;;;;;20.90;18.80;;;20.10;67.90;;;;;;1491533;39;20032;-59
2021/08/05 04:35:12;;;;;;;20.05;18.00;;;20.20;67.90;;;;;;1488929;39;20355;-59
2021/08/05 04:36:33;;;;;;;17.48;15.63;;;20.10;68.00;;;;;;1491556;39;20125;-59
2021/08/05 04:37:59;;;;;;;18.85;17.02;;;20.20;68.10;;;;;;1489753;39;20364;-59
2021/08/05 04:39:20;;;;;;;22.50;19.27;;;20.10;68.40;;;;;;1491790;39;20042;-59
2021/08/05 04:40:42;;;;;;;24.08;19.95;;;20.20;68.30;;;;;;1490489;39;20016;-59
2021/08/05 04:42:03;;;;;;;23.50;21.17;;;20.20;68.30;;;;;;1491117;39;20048;-59
2021/08/05 04:43:24;;;;;;;25.13;22.45;;;20.20;68.30;;;;;;1491975;39;20043;-59
2021/08/05 04:44:44;;;;;;;22.88;20.33;;;20.20;68.50;;;;;;1491601;39;20032;-59
2021/08/05 04:46:05;;;;;;;20.63;18.45;;;20.20;68.20;;;;;;1490035;39;20055;-59
2021/08/05 04:47:26;;;;;;;19.58;17.48;;;20.30;68.30;;;;;;1493357;39;20026;-59
2021/08/05 04:48:47;;;;;;;18.85;16.85;;;20.20;68.20;;;;;;1490864;39;20035;-59
2021/08/05 04:50:08;;;;;;;19.40;17.30;;;20.20;68.30;;;;;;1488777;39;20076;-59
2021/08/05 04:51:33;;;;;;;17.95;16.05;;;20.20;68.50;;;;;;1491076;39;20039;-59
2021/08/05 04:52:55;;;;;;;21.48;19.20;;;20.20;68.60;;;;;;1489367;39;20363;-59
2021/08/05 04:54:16;;;;;;;20.75;18.00;;;20.30;68.60;;;;;;1491885;39;20076;-59
2021/08/05 04:55:37;;;;;;;17.70;16.00;;;20.30;68.80;;;;;;1489753;39;20028;-59
2021/08/05 04:56:58;;;;;;;18.95;17.05;;;20.30;68.90;;;;;;1491250;39;20039;-59
2021/08/05 04:58:18;;;;;;;19.92;17.80;;;20.30;69.00;;;;;;1485731;39;20083;-59
2021/08/05 04:59:39;;;;;;;19.58;17.58;;;20.30;69.00;;;;;;1490513;39;20114;-58
2021/08/05 05:01:00;;;;;;;19.70;17.20;;;20.30;69.00;;;;;;1489954;39;20065;-59
2021/08/05 05:02:21;;;;;;;17.95;16.15;;;20.30;69.10;;;;;;1489174;39;20031;-59
2021/08/05 05:03:42;;;;;;;20.00;17.90;;;20.30;69.20;;;;;;1490361;39;20360;-59
2021/08/05 05:05:03;;;;;;;23.13;20.83;;;20.30;69.20;;;;;;1488604;39;20028;-59
2021/08/05 05:06:24;;;;;;;23.02;20.65;;;20.30;69.30;;;;;;1490444;39;20059;-59
2021/08/05 05:07:45;;;;;;;22.25;19.45;;;20.30;69.30;;;;;;1491086;39;20051;-59
2021/08/05 05:09:06;;;;;;;23.25;20.83;;;20.40;69.40;;;;;;1492899;39;20410;-59
2021/08/05 05:10:27;;;;;;;22.00;19.15;;;20.30;69.30;;;;;;1489416;39;20051;-59
2021/08/05 05:11:48;;;;;;;20.27;18.17;;;20.40;69.40;;;;;;1489251;39;20085;-59
2021/08/05 05:13:09;;;;;;;18.83;16.83;;;20.40;69.60;;;;;;1490395;39;20468;-59
2021/08/05 05:14:29;;;;;;;18.38;16.60;;;20.40;69.80;;;;;;1489938;39;20056;-59
2021/08/05 05:15:50;;;;;;;20.13;18.00;;;20.40;69.90;;;;;;1490026;39;20113;-59
2021/08/05 05:17:11;;;;;;;21.52;18.95;;;20.40;70.00;;;;;;1487024;40;20044;-59
2021/08/05 05:18:32;;;;;;;22.70;20.40;;;20.40;70.10;;;;;;1490363;39;20028;-59
2021/08/05 05:19:53;;;;;;;23.10;20.60;;;20.40;70.10;;;;;;1489437;39;20032;-59
2021/08/05 05:21:14;;;;;;;20.42;18.17;;;20.40;70.10;;;;;;1489760;39;20030;-59
2021/08/05 05:22:36;;;;;;;20.27;18.27;;;20.40;70.10;;;;;;1489733;39;20039;-59
2021/08/05 05:23:57;;;;;;;19.30;17.30;;;20.40;70.10;;;;;;1490133;39;20394;-59
2021/08/05 05:25:18;;;;;;;19.77;17.67;;;20.50;70.20;;;;;;1490727;39;20027;-59
2021/08/05 05:26:38;;;;;;;19.00;17.10;;;20.50;70.20;;;;;;1488081;39;20036;-59
2021/08/05 05:28:00;;;;;;;20.10;18.05;;;20.50;70.30;;;;;;1489558;39;20035;-59
2021/08/05 05:29:21;;;;;;;18.55;16.65;;;20.60;70.50;;;;;;1491250;39;20034;-59
2021/08/05 05:30:42;;;;;;;22.75;19.52;;;20.60;70.60;;;;;;1488766;39;20028;-59
2021/08/05 05:32:05;;;;;;;23.05;20.75;;;20.60;70.60;;;;;;1486353;39;20472;-59
2021/08/05 05:33:26;;;;;;;22.50;20.13;;;20.60;70.60;;;;;;1492741;39;20411;-59
2021/08/05 05:34:47;;;;;;;23.98;21.60;;;20.70;70.50;;;;;;1490706;39;20035;-59
2021/08/05 05:36:08;;;;;;;21.98;19.67;;;20.70;70.40;;;;;;1491512;39;20050;-59
2021/08/05 05:37:29;;;;;;;21.63;19.48;;;20.70;70.20;;;;;;1492278;39;20024;-59
2021/08/05 05:38:49;;;;;;;25.55;21.85;;;20.70;70.20;;;;;;1491376;39;20027;-59
2021/08/05 05:40:12;;;;;;;20.25;18.15;;;20.80;70.30;;;;;;1489212;39;20027;-59
2021/08/05 05:41:32;;;;;;;20.92;18.83;;;20.80;70.10;;;;;;1487434;39;20012;-59
2021/08/05 05:42:54;;;;;;;20.95;18.75;;;20.80;70.00;;;;;;1490712;39;20028;-59
2021/08/05 05:44:15;;;;;;;19.67;17.75;;;20.90;70.10;;;;;;1492045;39;20027;-59
2021/08/05 05:45:36;;;;;;;22.20;19.75;;;20.90;70.70;;;;;;1488756;39;20024;-59
2021/08/05 05:46:57;;;;;;;19.75;17.70;;;20.90;70.00;;;;;;1490455;39;20035;-59
2021/08/05 05:48:18;;;;;;;21.30;19.13;;;20.90;70.00;;;;;;1489431;39;20028;-59
2021/08/05 05:49:39;;;;;;;19.67;17.67;;;20.90;70.10;;;;;;1488581;39;20118;-59
2021/08/05 05:51:00;;;;;;;20.90;18.30;;;20.90;70.20;;;;;;1488946;39;20028;-59
2021/08/05 05:52:22;;;;;;;22.08;19.85;;;20.90;70.20;;;;;;1491626;39;20068;-59
2021/08/05 05:53:43;;;;;;;25.33;21.60;;;21.00;70.00;;;;;;1489672;39;20430;-59
2021/08/05 05:55:04;;;;;;;24.45;22.05;;;21.00;69.70;;;;;;1488308;39;20063;-59
2021/08/05 05:56:25;;;;;;;24.52;21.75;;;21.00;69.50;;;;;;1491402;39;20272;-59
2021/08/05 05:57:46;;;;;;;25.00;22.35;;;21.00;69.40;;;;;;1491282;39;20036;-59
2021/08/05 05:59:07;;;;;;;22.20;19.88;;;21.00;69.40;;;;;;1490235;39;20071;-59
2021/08/05 06:00:28;;;;;;;24.25;21.63;;;21.10;69.30;;;;;;1489577;39;20090;-59
2021/08/05 06:01:49;;;;;;;25.05;22.45;;;21.10;69.20;;;;;;1489319;39;20074;-59
2021/08/05 06:03:10;;;;;;;24.75;21.95;;;21.10;69.30;;;;;;1491895;39;20042;-59
2021/08/05 06:04:31;;;;;;;25.38;22.67;;;21.10;69.40;;;;;;1491182;39;20019;-59
2021/08/05 06:05:52;;;;;;;26.13;21.88;;;21.10;69.30;;;;;;1490933;39;20043;-59
2021/08/05 06:07:13;;;;;;;22.08;19.77;;;21.10;69.30;;;;;;1492336;39;20271;-59
2021/08/05 06:08:34;;;;;;;22.95;20.60;;;21.10;69.20;;;;;;1488291;39;20016;-59
2021/08/05 06:09:55;;;;;;;23.48;21.05;;;21.10;69.00;;;;;;1490199;39;20060;-59
2021/08/05 06:11:15;;;;;;;21.95;19.63;;;21.10;68.90;;;;;;1490577;39;20036;-60
2021/08/05 06:12:36;;;;;;;20.85;18.58;;;21.20;69.00;;;;;;1494305;39;20027;-59
2021/08/05 06:13:57;;;;;;;20.05;17.95;;;21.10;68.90;;;;;;1491853;39;20031;-59
2021/08/05 06:15:19;;;;;;;18.77;16.88;;;21.20;69.70;;;;;;1491097;39;20030;-59
2021/08/05 06:16:41;;;;;;;21.00;18.88;;;21.20;69.00;;;;;;1490375;39;20056;-59
2021/08/05 06:18:04;;;;;;;19.52;17.48;;;21.20;69.00;;;;;;1490801;39;20027;-59
2021/08/05 06:19:25;;;;;;;22.00;19.63;;;21.20;69.10;;;;;;1490517;39;20120;-59
2021/08/05 06:20:46;;;;;;;18.83;16.92;;;21.20;68.80;;;;;;1489840;39;20360;-59
2021/08/05 06:22:10;;;;;;;19.30;17.23;;;21.20;68.70;;;;;;1490939;39;20420;-60
2021/08/05 06:23:31;;;;;;;19.05;17.10;;;21.20;68.60;;;;;;1489872;39;20047;-59
2021/08/05 06:24:52;;;;;;;18.65;16.75;;;21.30;68.60;;;;;;1487064;39;20312;-59
2021/08/05 06:26:13;;;;;;;19.08;17.08;;;21.30;68.50;;;;;;1490834;39;20039;-59
2021/08/05 06:27:34;;;;;;;18.27;16.42;;;21.30;68.50;;;;;;1487011;39;20025;-59
2021/08/05 06:28:55;;;;;;;18.80;16.90;;;21.30;68.40;;;;;;1490837;39;20032;-59
2021/08/05 06:30:17;;;;;;;18.45;16.65;;;21.30;68.30;;;;;;1492297;39;20427;-59
2021/08/05 06:31:38;;;;;;;20.50;18.23;;;21.30;68.30;;;;;;1489490;39;20130;-59
2021/08/05 06:32:59;;;;;;;18.08;16.17;;;21.30;68.40;;;;;;1490272;39;20036;-59
2021/08/05 06:34:20;;;;;;;18.73;16.83;;;21.30;68.70;;;;;;1491564;39;20024;-59
2021/08/05 06:35:41;;;;;;;18.48;16.58;;;21.40;68.90;;;;;;1490867;39;20031;-60
2021/08/05 06:37:02;;;;;;;18.55;16.70;;;21.40;69.00;;;;;;1490143;39;20035;-59
2021/08/05 06:38:23;;;;;;;20.95;18.85;;;21.40;69.00;;;;;;1491495;39;20068;-59
2021/08/05 06:39:43;;;;;;;22.33;20.05;;;21.40;68.80;;;;;;1489311;39;20030;-62
2021/08/05 06:41:04;;;;;;;19.85;17.88;;;21.50;68.60;;;;;;1487004;39;20105;-60
2021/08/05 06:42:25;;;;;;;19.73;17.73;;;21.50;68.40;;;;;;1488957;39;20060;-60
2021/08/05 06:43:46;;;;;;;21.00;18.75;;;21.50;68.30;;;;;;1491548;39;20381;-60
2021/08/05 06:45:10;;;;;;;17.60;15.80;;;21.50;68.20;;;;;;1489414;39;20066;-59
2021/08/05 06:46:31;;;;;;;18.42;16.40;;;21.50;68.30;;;;;;1491102;39;20024;-59
2021/08/05 06:47:52;;;;;;;18.10;16.27;;;21.60;68.30;;;;;;1490299;39;20032;-59
2021/08/05 06:49:13;;;;;;;19.52;17.58;;;21.60;68.10;;;;;;1492259;39;20068;-59
2021/08/05 06:50:34;;;;;;;18.50;16.60;;;21.60;67.90;;;;;;1491032;39;20357;-59
2021/08/05 06:51:54;;;;;;;18.33;16.52;;;21.60;67.90;;;;;;1488581;39;20352;-59
2021/08/05 06:53:16;;;;;;;18.25;16.35;;;21.60;67.80;;;;;;1488461;39;20036;-59
2021/08/05 06:54:37;;;;;;;18.60;16.77;;;21.70;67.90;;;;;;1491031;39;20566;-59
2021/08/05 06:55:58;;;;;;;17.63;15.82;;;21.70;68.50;;;;;;1491210;39;20024;-59
2021/08/05 06:57:19;;;;;;;16.95;15.30;;;21.70;67.80;;;;;;1492272;39;20035;-59